sensor_id;sensor_type;location;lat;lon;timestamp;temperature;humidity
33863;DHT22;20158;51.436;-2.742;2023-01-09T00:02:41;8.80;68.40
33863;DHT22;20158;51.436;-2.742;2023-01-09T00:05:27;8.80;68.40
33863;DHT22;20158;51.436;-2.742;2023-01-09T00:08:12;8.80;68.50
33863;DHT22;20158;51.436;-2.742;2023-01-09T00:10:56;8.70;68.30
33863;DHT22;20158;51.436;-2.742;2023-01-09T00:13:41;8.70;68.30
33863;DHT22;20158;51.436;-2.742;2023-01-09T00:16:26;8.70;68.40
33863;DHT22;20158;51.436;-2.742;2023-01-09T00:19:11;8.70;68.40
33863;DHT22;20158;51.436;-2.742;2023-01-09T00:21:56;8.70;68.50
33863;DHT22;20158;51.436;-2.742;2023-01-09T00:24:40;8.70;68.50
33863;DHT22;20158;51.436;-2.742;2023-01-09T00:27:25;8.60;68.30
33863;DHT22;20158;51.436;-2.742;2023-01-09T00:30:10;8.60;68.30
33863;DHT22;20158;51.436;-2.742;2023-01-09T00:32:55;8.60;68.40
33863;DHT22;20158;51.436;-2.742;2023-01-09T00:35:39;8.60;68.50
33863;DHT22;20158;51.436;-2.742;2023-01-09T00:38:24;8.60;68.50
33863;DHT22;20158;51.436;-2.742;2023-01-09T00:41:13;8.60;68.50
33863;DHT22;20158;51.436;-2.742;2023-01-09T00:44:03;8.60;69.10
33863;DHT22;20158;51.436;-2.742;2023-01-09T00:46:54;8.60;68.60
33863;DHT22;20158;51.436;-2.742;2023-01-09T00:49:41;8.60;68.60
33863;DHT22;20158;51.436;-2.742;2023-01-09T00:52:28;8.60;68.60
33863;DHT22;20158;51.436;-2.742;2023-01-09T00:55:13;8.50;68.50
33863;DHT22;20158;51.436;-2.742;2023-01-09T00:57:58;8.50;68.50
33863;DHT22;20158;51.436;-2.742;2023-01-09T01:00:43;8.50;68.50
33863;DHT22;20158;51.436;-2.742;2023-01-09T01:03:27;8.50;68.50
33863;DHT22;20158;51.436;-2.742;2023-01-09T01:06:13;8.50;68.60
33863;DHT22;20158;51.436;-2.742;2023-01-09T01:09:16;8.50;68.60
33863;DHT22;20158;51.436;-2.742;2023-01-09T01:12:01;8.50;68.60
33863;DHT22;20158;51.436;-2.742;2023-01-09T01:14:51;8.50;68.60
33863;DHT22;20158;51.436;-2.742;2023-01-09T01:17:37;8.50;68.70
33863;DHT22;20158;51.436;-2.742;2023-01-09T01:20:22;8.50;68.60
33863;DHT22;20158;51.436;-2.742;2023-01-09T01:23:07;8.50;68.70
33863;DHT22;20158;51.436;-2.742;2023-01-09T01:25:52;8.60;68.80
33863;DHT22;20158;51.436;-2.742;2023-01-09T01:28:37;8.60;68.80
33863;DHT22;20158;51.436;-2.742;2023-01-09T01:31:21;8.60;68.90
33863;DHT22;20158;51.436;-2.742;2023-01-09T01:34:06;8.60;68.90
33863;DHT22;20158;51.436;-2.742;2023-01-09T01:36:51;8.60;68.90
33863;DHT22;20158;51.436;-2.742;2023-01-09T01:39:35;8.60;68.90
33863;DHT22;20158;51.436;-2.742;2023-01-09T01:42:20;8.60;68.90
33863;DHT22;20158;51.436;-2.742;2023-01-09T01:45:29;8.60;69.40
33863;DHT22;20158;51.436;-2.742;2023-01-09T01:48:17;8.60;68.90
33863;DHT22;20158;51.436;-2.742;2023-01-09T01:51:04;8.70;69.00
33863;DHT22;20158;51.436;-2.742;2023-01-09T01:53:54;8.60;68.80
33863;DHT22;20158;51.436;-2.742;2023-01-09T01:56:50;8.70;69.10
33863;DHT22;20158;51.436;-2.742;2023-01-09T01:59:56;8.70;69.00
33863;DHT22;20158;51.436;-2.742;2023-01-09T02:02:42;8.60;68.90
33863;DHT22;20158;51.436;-2.742;2023-01-09T02:05:30;8.60;68.90
33863;DHT22;20158;51.436;-2.742;2023-01-09T02:08:15;8.60;68.90
33863;DHT22;20158;51.436;-2.742;2023-01-09T02:11:02;8.60;69.00
33863;DHT22;20158;51.436;-2.742;2023-01-09T02:13:47;8.60;69.00
33863;DHT22;20158;51.436;-2.742;2023-01-09T02:21:16;8.60;69.10
33863;DHT22;20158;51.436;-2.742;2023-01-09T02:27:03;8.60;69.10
33863;DHT22;20158;51.436;-2.742;2023-01-09T02:39:14;8.60;69.20
33863;DHT22;20158;51.436;-2.742;2023-01-09T02:44:54;8.60;69.20
33863;DHT22;20158;51.436;-2.742;2023-01-09T02:47:41;8.60;69.20
33863;DHT22;20158;51.436;-2.742;2023-01-09T02:50:43;8.60;69.10
33863;DHT22;20158;51.436;-2.742;2023-01-09T02:57:10;8.60;69.10
33863;DHT22;20158;51.436;-2.742;2023-01-09T03:00:21;8.60;69.20
33863;DHT22;20158;51.436;-2.742;2023-01-09T03:03:38;8.60;69.20
33863;DHT22;20158;51.436;-2.742;2023-01-09T03:06:54;8.60;69.10
33863;DHT22;20158;51.436;-2.742;2023-01-09T03:09:42;8.60;69.20
33863;DHT22;20158;51.436;-2.742;2023-01-09T03:12:31;8.60;69.20
33863;DHT22;20158;51.436;-2.742;2023-01-09T03:15:17;8.50;69.10
33863;DHT22;20158;51.436;-2.742;2023-01-09T03:18:05;8.60;69.20
33863;DHT22;20158;51.436;-2.742;2023-01-09T03:20:51;8.60;69.20
33863;DHT22;20158;51.436;-2.742;2023-01-09T03:23:57;8.50;69.10
33863;DHT22;20158;51.436;-2.742;2023-01-09T03:26:41;8.50;69.10
33863;DHT22;20158;51.436;-2.742;2023-01-09T03:29:26;8.50;69.10
33863;DHT22;20158;51.436;-2.742;2023-01-09T03:32:11;8.50;69.10
33863;DHT22;20158;51.436;-2.742;2023-01-09T03:34:55;8.50;69.10
33863;DHT22;20158;51.436;-2.742;2023-01-09T03:37:40;8.50;69.10
33863;DHT22;20158;51.436;-2.742;2023-01-09T03:40:25;8.50;69.10
33863;DHT22;20158;51.436;-2.742;2023-01-09T03:43:09;8.50;69.10
33863;DHT22;20158;51.436;-2.742;2023-01-09T03:45:54;8.50;69.10
33863;DHT22;20158;51.436;-2.742;2023-01-09T03:48:39;8.50;69.10
33863;DHT22;20158;51.436;-2.742;2023-01-09T03:51:23;8.40;68.90
33863;DHT22;20158;51.436;-2.742;2023-01-09T03:54:08;8.40;68.90
33863;DHT22;20158;51.436;-2.742;2023-01-09T03:56:53;8.40;68.90
33863;DHT22;20158;51.436;-2.742;2023-01-09T03:59:37;8.40;68.90
33863;DHT22;20158;51.436;-2.742;2023-01-09T04:02:22;8.40;68.90
33863;DHT22;20158;51.436;-2.742;2023-01-09T04:05:07;8.40;68.90
33863;DHT22;20158;51.436;-2.742;2023-01-09T04:07:52;8.40;69.00
33863;DHT22;20158;51.436;-2.742;2023-01-09T04:10:36;8.30;68.80
33863;DHT22;20158;51.436;-2.742;2023-01-09T04:13:21;8.30;68.80
33863;DHT22;20158;51.436;-2.742;2023-01-09T04:16:06;8.30;68.90
33863;DHT22;20158;51.436;-2.742;2023-01-09T04:18:51;8.30;68.90
33863;DHT22;20158;51.436;-2.742;2023-01-09T04:21:35;8.30;68.90
33863;DHT22;20158;51.436;-2.742;2023-01-09T04:24:20;8.30;68.90
33863;DHT22;20158;51.436;-2.742;2023-01-09T04:27:05;8.30;68.90
33863;DHT22;20158;51.436;-2.742;2023-01-09T04:29:50;8.20;68.70
33863;DHT22;20158;51.436;-2.742;2023-01-09T04:32:34;8.20;68.80
33863;DHT22;20158;51.436;-2.742;2023-01-09T04:35:19;8.20;68.80
33863;DHT22;20158;51.436;-2.742;2023-01-09T04:38:03;8.20;68.80
33863;DHT22;20158;51.436;-2.742;2023-01-09T04:40:48;8.20;68.80
33863;DHT22;20158;51.436;-2.742;2023-01-09T04:43:33;8.20;68.80
33863;DHT22;20158;51.436;-2.742;2023-01-09T04:46:17;8.10;68.60
33863;DHT22;20158;51.436;-2.742;2023-01-09T04:49:02;8.10;68.60
33863;DHT22;20158;51.436;-2.742;2023-01-09T04:51:47;8.10;68.60
33863;DHT22;20158;51.436;-2.742;2023-01-09T04:54:31;8.10;68.60
33863;DHT22;20158;51.436;-2.742;2023-01-09T04:57:18;8.10;68.60
33863;DHT22;20158;51.436;-2.742;2023-01-09T05:00:04;8.10;68.60
33863;DHT22;20158;51.436;-2.742;2023-01-09T05:02:52;8.10;68.60
33863;DHT22;20158;51.436;-2.742;2023-01-09T05:05:37;8.00;68.50
33863;DHT22;20158;51.436;-2.742;2023-01-09T05:08:22;8.00;68.50
33863;DHT22;20158;51.436;-2.742;2023-01-09T05:11:06;8.00;68.50
33863;DHT22;20158;51.436;-2.742;2023-01-09T05:13:51;8.00;68.50
33863;DHT22;20158;51.436;-2.742;2023-01-09T05:16:37;7.90;68.40
33863;DHT22;20158;51.436;-2.742;2023-01-09T05:19:22;8.00;68.60
33863;DHT22;20158;51.436;-2.742;2023-01-09T05:22:07;7.90;68.40
33863;DHT22;20158;51.436;-2.742;2023-01-09T05:24:51;7.90;68.40
33863;DHT22;20158;51.436;-2.742;2023-01-09T05:27:36;7.90;68.40
33863;DHT22;20158;51.436;-2.742;2023-01-09T05:30:21;8.00;68.60
33863;DHT22;20158;51.436;-2.742;2023-01-09T05:33:06;7.90;68.30
33863;DHT22;20158;51.436;-2.742;2023-01-09T05:35:50;8.00;68.50
33863;DHT22;20158;51.436;-2.742;2023-01-09T05:38:36;8.00;68.50
33863;DHT22;20158;51.436;-2.742;2023-01-09T05:41:21;8.00;68.50
33863;DHT22;20158;51.436;-2.742;2023-01-09T05:44:05;8.10;68.50
33863;DHT22;20158;51.436;-2.742;2023-01-09T05:46:50;8.10;68.50
33863;DHT22;20158;51.436;-2.742;2023-01-09T05:49:35;8.10;68.50
33863;DHT22;20158;51.436;-2.742;2023-01-09T05:52:19;8.10;68.40
33863;DHT22;20158;51.436;-2.742;2023-01-09T05:55:05;8.10;68.30
33863;DHT22;20158;51.436;-2.742;2023-01-09T05:57:50;8.20;68.50
33863;DHT22;20158;51.436;-2.742;2023-01-09T06:00:34;8.20;68.50
33863;DHT22;20158;51.436;-2.742;2023-01-09T06:03:19;8.20;68.50
33863;DHT22;20158;51.436;-2.742;2023-01-09T06:06:04;8.20;68.50
33863;DHT22;20158;51.436;-2.742;2023-01-09T06:08:48;8.20;68.50
33863;DHT22;20158;51.436;-2.742;2023-01-09T06:11:33;8.20;68.50
33863;DHT22;20158;51.436;-2.742;2023-01-09T06:14:22;8.30;68.60
33863;DHT22;20158;51.436;-2.742;2023-01-09T06:17:06;8.30;68.60
33863;DHT22;20158;51.436;-2.742;2023-01-09T06:19:51;8.30;68.60
33863;DHT22;20158;51.436;-2.742;2023-01-09T06:22:36;8.30;68.50
33863;DHT22;20158;51.436;-2.742;2023-01-09T06:25:20;8.30;68.50
33863;DHT22;20158;51.436;-2.742;2023-01-09T06:28:05;8.30;68.50
33863;DHT22;20158;51.436;-2.742;2023-01-09T06:30:50;8.40;68.70
33863;DHT22;20158;51.436;-2.742;2023-01-09T06:33:35;8.40;68.60
33863;DHT22;20158;51.436;-2.742;2023-01-09T06:36:20;8.40;68.60
33863;DHT22;20158;51.436;-2.742;2023-01-09T06:39:04;8.40;68.60
33863;DHT22;20158;51.436;-2.742;2023-01-09T06:41:48;8.50;68.70
33863;DHT22;20158;51.436;-2.742;2023-01-09T06:44:33;8.50;68.70
33863;DHT22;20158;51.436;-2.742;2023-01-09T06:47:20;8.60;68.90
33863;DHT22;20158;51.436;-2.742;2023-01-09T06:50:06;8.60;68.80
33863;DHT22;20158;51.436;-2.742;2023-01-09T06:52:50;8.60;68.80
33863;DHT22;20158;51.436;-2.742;2023-01-09T06:55:35;8.60;68.80
33863;DHT22;20158;51.436;-2.742;2023-01-09T06:58:19;8.70;69.00
33863;DHT22;20158;51.436;-2.742;2023-01-09T07:01:04;8.60;68.70
33863;DHT22;20158;51.436;-2.742;2023-01-09T07:03:49;8.60;68.70
33863;DHT22;20158;51.436;-2.742;2023-01-09T07:06:33;8.70;68.90
33863;DHT22;20158;51.436;-2.742;2023-01-09T07:09:18;8.70;68.90
33863;DHT22;20158;51.436;-2.742;2023-01-09T07:12:03;8.70;69.20
33863;DHT22;20158;51.436;-2.742;2023-01-09T07:14:48;8.70;68.90
33863;DHT22;20158;51.436;-2.742;2023-01-09T07:17:33;8.70;69.00
33863;DHT22;20158;51.436;-2.742;2023-01-09T07:20:18;8.70;69.00
33863;DHT22;20158;51.436;-2.742;2023-01-09T07:23:03;8.70;69.00
33863;DHT22;20158;51.436;-2.742;2023-01-09T07:25:50;8.70;69.00
33863;DHT22;20158;51.436;-2.742;2023-01-09T07:28:35;8.80;69.10
33863;DHT22;20158;51.436;-2.742;2023-01-09T07:31:19;8.80;69.10
33863;DHT22;20158;51.436;-2.742;2023-01-09T07:34:04;8.90;69.40
33863;DHT22;20158;51.436;-2.742;2023-01-09T07:36:49;8.90;69.50
33863;DHT22;20158;51.436;-2.742;2023-01-09T07:39:34;8.90;69.60
33863;DHT22;20158;51.436;-2.742;2023-01-09T07:42:19;8.90;69.50
33863;DHT22;20158;51.436;-2.742;2023-01-09T07:45:06;8.90;69.50
33863;DHT22;20158;51.436;-2.742;2023-01-09T07:47:50;9.00;69.70
33863;DHT22;20158;51.436;-2.742;2023-01-09T07:50:37;9.00;69.70
33863;DHT22;20158;51.436;-2.742;2023-01-09T07:53:21;9.00;69.70
33863;DHT22;20158;51.436;-2.742;2023-01-09T07:56:06;9.00;69.70
33863;DHT22;20158;51.436;-2.742;2023-01-09T07:58:51;9.00;69.70
33863;DHT22;20158;51.436;-2.742;2023-01-09T08:01:36;9.00;69.70
33863;DHT22;20158;51.436;-2.742;2023-01-09T08:04:20;9.00;69.70
33863;DHT22;20158;51.436;-2.742;2023-01-09T08:07:05;9.10;70.00
33863;DHT22;20158;51.436;-2.742;2023-01-09T08:09:50;9.10;70.20
33863;DHT22;20158;51.436;-2.742;2023-01-09T08:12:34;9.20;70.60
33863;DHT22;20158;51.436;-2.742;2023-01-09T08:15:19;9.30;71.00
33863;DHT22;20158;51.436;-2.742;2023-01-09T08:18:05;9.30;71.00
33863;DHT22;20158;51.436;-2.742;2023-01-09T08:20:50;9.40;71.10
33863;DHT22;20158;51.436;-2.742;2023-01-09T08:23:35;9.40;71.10
33863;DHT22;20158;51.436;-2.742;2023-01-09T08:26:20;9.50;71.40
33863;DHT22;20158;51.436;-2.742;2023-01-09T08:29:05;9.50;71.40
33863;DHT22;20158;51.436;-2.742;2023-01-09T08:31:49;9.50;71.40
33863;DHT22;20158;51.436;-2.742;2023-01-09T08:34:34;9.50;71.50
33863;DHT22;20158;51.436;-2.742;2023-01-09T08:37:19;9.50;71.50
33863;DHT22;20158;51.436;-2.742;2023-01-09T08:40:04;9.50;71.50
33863;DHT22;20158;51.436;-2.742;2023-01-09T08:42:49;9.60;71.70
33863;DHT22;20158;51.436;-2.742;2023-01-09T08:45:52;9.60;71.70
33863;DHT22;20158;51.436;-2.742;2023-01-09T08:49:03;9.60;71.70
33863;DHT22;20158;51.436;-2.742;2023-01-09T08:51:47;9.60;71.80
33863;DHT22;20158;51.436;-2.742;2023-01-09T08:54:33;9.70;72.20
33863;DHT22;20158;51.436;-2.742;2023-01-09T08:57:20;9.70;72.30
33863;DHT22;20158;51.436;-2.742;2023-01-09T09:00:05;9.80;72.50
33863;DHT22;20158;51.436;-2.742;2023-01-09T09:02:50;9.90;72.70
33863;DHT22;20158;51.436;-2.742;2023-01-09T09:05:35;10.00;72.80
33863;DHT22;20158;51.436;-2.742;2023-01-09T09:08:20;10.00;72.80
33863;DHT22;20158;51.436;-2.742;2023-01-09T09:11:05;10.10;72.90
33863;DHT22;20158;51.436;-2.742;2023-01-09T09:13:49;10.10;72.90
33863;DHT22;20158;51.436;-2.742;2023-01-09T09:16:34;10.10;72.90
33863;DHT22;20158;51.436;-2.742;2023-01-09T09:19:18;10.20;73.10
33863;DHT22;20158;51.436;-2.742;2023-01-09T09:22:03;10.20;73.10
33863;DHT22;20158;51.436;-2.742;2023-01-09T09:24:47;10.30;73.70
33863;DHT22;20158;51.436;-2.742;2023-01-09T09:27:32;10.30;73.10
33863;DHT22;20158;51.436;-2.742;2023-01-09T09:30:18;10.40;73.20
33863;DHT22;20158;51.436;-2.742;2023-01-09T09:33:03;10.40;73.20
33863;DHT22;20158;51.436;-2.742;2023-01-09T09:35:48;10.50;73.20
33863;DHT22;20158;51.436;-2.742;2023-01-09T09:38:32;10.60;73.30
33863;DHT22;20158;51.436;-2.742;2023-01-09T09:51:25;10.90;73.10
33863;DHT22;20158;51.436;-2.742;2023-01-09T09:54:19;11.00;73.10
33863;DHT22;20158;51.436;-2.742;2023-01-09T09:57:12;11.10;73.10
33863;DHT22;20158;51.436;-2.742;2023-01-09T09:59:57;11.10;73.00
33863;DHT22;20158;51.436;-2.742;2023-01-09T10:02:46;11.20;73.10
33863;DHT22;20158;51.436;-2.742;2023-01-09T10:05:35;11.20;73.10
33863;DHT22;20158;51.436;-2.742;2023-01-09T10:08:48;11.40;73.70
33863;DHT22;20158;51.436;-2.742;2023-01-09T10:11:55;11.60;73.90
33863;DHT22;20158;51.436;-2.742;2023-01-09T10:14:41;11.90;73.70
33863;DHT22;20158;51.436;-2.742;2023-01-09T10:21:05;12.00;73.20
33863;DHT22;20158;51.436;-2.742;2023-01-09T10:24:25;12.00;73.00
33863;DHT22;20158;51.436;-2.742;2023-01-09T10:27:21;12.00;72.90
33863;DHT22;20158;51.436;-2.742;2023-01-09T10:39:39;11.70;72.20
33863;DHT22;20158;51.436;-2.742;2023-01-09T10:42:26;11.70;72.20
33863;DHT22;20158;51.436;-2.742;2023-01-09T10:45:28;11.60;72.00
33863;DHT22;20158;51.436;-2.742;2023-01-09T10:48:34;11.60;71.90
33863;DHT22;20158;51.436;-2.742;2023-01-09T10:52:18;11.60;71.80
33863;DHT22;20158;51.436;-2.742;2023-01-09T10:55:43;11.40;71.40
33863;DHT22;20158;51.436;-2.742;2023-01-09T10:58:19;11.40;71.60
33863;DHT22;20158;51.436;-2.742;2023-01-09T11:01:04;11.30;71.30
33863;DHT22;20158;51.436;-2.742;2023-01-09T11:03:49;11.30;71.30
33863;DHT22;20158;51.436;-2.742;2023-01-09T11:06:48;11.30;71.30
33863;DHT22;20158;51.436;-2.742;2023-01-09T11:10:03;11.30;71.10
33863;DHT22;20158;51.436;-2.742;2023-01-09T11:12:47;11.30;71.10
33863;DHT22;20158;51.436;-2.742;2023-01-09T11:15:33;11.20;70.90
33863;DHT22;20158;51.436;-2.742;2023-01-09T11:18:22;11.20;70.90
33863;DHT22;20158;51.436;-2.742;2023-01-09T11:21:37;11.20;70.80
33863;DHT22;20158;51.436;-2.742;2023-01-09T11:24:26;11.20;70.70
33863;DHT22;20158;51.436;-2.742;2023-01-09T11:32:59;11.20;70.60
33863;DHT22;20158;51.436;-2.742;2023-01-09T11:36:07;11.20;70.70
33863;DHT22;20158;51.436;-2.742;2023-01-09T11:38:58;11.20;70.60
33863;DHT22;20158;51.436;-2.742;2023-01-09T11:41:43;11.20;70.60
33863;DHT22;20158;51.436;-2.742;2023-01-09T11:44:29;11.30;70.70
33863;DHT22;20158;51.436;-2.742;2023-01-09T11:47:37;11.30;70.70
33863;DHT22;20158;51.436;-2.742;2023-01-09T11:50:27;11.30;70.60
33863;DHT22;20158;51.436;-2.742;2023-01-09T11:53:18;11.30;70.50
33863;DHT22;20158;51.436;-2.742;2023-01-09T11:56:03;11.40;70.50
33863;DHT22;20158;51.436;-2.742;2023-01-09T11:58:48;11.40;70.50
33863;DHT22;20158;51.436;-2.742;2023-01-09T12:04:51;11.40;70.30
33863;DHT22;20158;51.436;-2.742;2023-01-09T12:23:19;11.90;71.40
33863;DHT22;20158;51.436;-2.742;2023-01-09T12:35:01;12.10;70.60
33863;DHT22;20158;51.436;-2.742;2023-01-09T12:38:05;12.00;70.30
33863;DHT22;20158;51.436;-2.742;2023-01-09T12:47:41;12.00;70.20
33863;DHT22;20158;51.436;-2.742;2023-01-09T12:53:41;11.90;70.00
33863;DHT22;20158;51.436;-2.742;2023-01-09T12:59:41;11.80;69.80
33863;DHT22;20158;51.436;-2.742;2023-01-09T13:02:46;11.80;69.80
33863;DHT22;20158;51.436;-2.742;2023-01-09T13:05:39;11.80;69.80
33863;DHT22;20158;51.436;-2.742;2023-01-09T13:14:45;11.70;69.60
33863;DHT22;20158;51.436;-2.742;2023-01-09T13:17:37;11.80;69.70
33863;DHT22;20158;51.436;-2.742;2023-01-09T13:20:51;11.80;69.70
33863;DHT22;20158;51.436;-2.742;2023-01-09T13:24:06;11.70;69.50
33863;DHT22;20158;51.436;-2.742;2023-01-09T13:27:18;11.80;69.70
33863;DHT22;20158;51.436;-2.742;2023-01-09T13:36:27;12.00;71.60
33863;DHT22;20158;51.436;-2.742;2023-01-09T13:39:20;12.40;71.80
33863;DHT22;20158;51.436;-2.742;2023-01-09T13:42:15;12.60;71.70
33863;DHT22;20158;51.436;-2.742;2023-01-09T13:45:25;12.90;71.70
33863;DHT22;20158;51.436;-2.742;2023-01-09T13:51:34;13.10;70.90
33863;DHT22;20158;51.436;-2.742;2023-01-09T14:00:50;12.70;68.20
33863;DHT22;20158;51.436;-2.742;2023-01-09T14:03:36;12.40;68.20
33863;DHT22;20158;51.436;-2.742;2023-01-09T14:06:23;12.40;68.30
33863;DHT22;20158;51.436;-2.742;2023-01-09T14:09:19;12.30;68.10
33863;DHT22;20158;51.436;-2.742;2023-01-09T14:12:05;12.30;67.70
33863;DHT22;20158;51.436;-2.742;2023-01-09T14:14:51;12.30;67.70
33863;DHT22;20158;51.436;-2.742;2023-01-09T14:17:37;12.30;67.50
33863;DHT22;20158;51.436;-2.742;2023-01-09T14:20:36;12.30;67.20
33863;DHT22;20158;51.436;-2.742;2023-01-09T14:23:30;12.40;67.00
33863;DHT22;20158;51.436;-2.742;2023-01-09T14:26:19;12.40;66.80
33863;DHT22;20158;51.436;-2.742;2023-01-09T14:29:36;12.50;66.80
33863;DHT22;20158;51.436;-2.742;2023-01-09T14:35:13;12.50;66.50
33863;DHT22;20158;51.436;-2.742;2023-01-09T14:38:27;12.40;66.20
33863;DHT22;20158;51.436;-2.742;2023-01-09T14:44:46;12.30;66.20
33863;DHT22;20158;51.436;-2.742;2023-01-09T14:47:56;12.20;66.00
33863;DHT22;20158;51.436;-2.742;2023-01-09T14:50:51;12.20;66.20
33863;DHT22;20158;51.436;-2.742;2023-01-09T14:53:38;12.10;66.30
33863;DHT22;20158;51.436;-2.742;2023-01-09T14:56:29;12.10;66.40
33863;DHT22;20158;51.436;-2.742;2023-01-09T14:59:15;12.00;66.20
33863;DHT22;20158;51.436;-2.742;2023-01-09T15:02:00;12.00;66.30
33863;DHT22;20158;51.436;-2.742;2023-01-09T15:04:45;12.00;66.40
33863;DHT22;20158;51.436;-2.742;2023-01-09T15:07:29;11.90;66.30
33863;DHT22;20158;51.436;-2.742;2023-01-09T15:10:35;11.90;66.40
33863;DHT22;20158;51.436;-2.742;2023-01-09T15:13:29;11.90;66.30
33863;DHT22;20158;51.436;-2.742;2023-01-09T15:16:19;11.80;66.10
33863;DHT22;20158;51.436;-2.742;2023-01-09T15:19:06;11.80;66.20
33863;DHT22;20158;51.436;-2.742;2023-01-09T15:21:56;11.80;66.70
33863;DHT22;20158;51.436;-2.742;2023-01-09T15:24:41;11.90;67.50
33863;DHT22;20158;51.436;-2.742;2023-01-09T15:27:26;12.10;67.90
33863;DHT22;20158;51.436;-2.742;2023-01-09T15:30:16;12.30;68.10
33863;DHT22;20158;51.436;-2.742;2023-01-09T15:33:13;12.30;67.90
33863;DHT22;20158;51.436;-2.742;2023-01-09T15:35:58;12.40;67.90
33863;DHT22;20158;51.436;-2.742;2023-01-09T15:38:47;12.40;67.80
33863;DHT22;20158;51.436;-2.742;2023-01-09T15:41:32;12.40;67.80
33863;DHT22;20158;51.436;-2.742;2023-01-09T15:44:38;12.40;67.80
33863;DHT22;20158;51.436;-2.742;2023-01-09T15:47:24;12.40;68.00
33863;DHT22;20158;51.436;-2.742;2023-01-09T15:50:15;12.40;68.40
33863;DHT22;20158;51.436;-2.742;2023-01-09T15:53:00;12.60;69.00
33863;DHT22;20158;51.436;-2.742;2023-01-09T15:55:45;12.80;69.20
33863;DHT22;20158;51.436;-2.742;2023-01-09T15:58:47;13.00;69.30
33863;DHT22;20158;51.436;-2.742;2023-01-09T16:01:39;13.30;69.40
33863;DHT22;20158;51.436;-2.742;2023-01-09T16:04:24;13.30;68.90
33863;DHT22;20158;51.436;-2.742;2023-01-09T16:07:12;13.30;68.50
33863;DHT22;20158;51.436;-2.742;2023-01-09T16:09:58;13.30;68.30
33863;DHT22;20158;51.436;-2.742;2023-01-09T16:12:43;13.20;68.20
33863;DHT22;20158;51.436;-2.742;2023-01-09T16:15:33;13.10;68.00
33863;DHT22;20158;51.436;-2.742;2023-01-09T16:18:21;12.90;67.70
33863;DHT22;20158;51.436;-2.742;2023-01-09T16:21:35;12.80;67.70
33863;DHT22;20158;51.436;-2.742;2023-01-09T16:24:38;12.70;67.70
33863;DHT22;20158;51.436;-2.742;2023-01-09T16:27:31;12.60;67.80
33863;DHT22;20158;51.436;-2.742;2023-01-09T16:30:35;12.50;67.80
33863;DHT22;20158;51.436;-2.742;2023-01-09T16:33:25;12.40;67.70
33863;DHT22;20158;51.436;-2.742;2023-01-09T16:36:11;12.40;67.90
33863;DHT22;20158;51.436;-2.742;2023-01-09T16:38:57;12.30;67.80
33863;DHT22;20158;51.436;-2.742;2023-01-09T16:41:46;12.30;67.80
33863;DHT22;20158;51.436;-2.742;2023-01-09T16:44:49;12.30;67.90
33863;DHT22;20158;51.436;-2.742;2023-01-09T16:47:33;12.20;67.80
33863;DHT22;20158;51.436;-2.742;2023-01-09T16:50:18;12.20;68.00
33863;DHT22;20158;51.436;-2.742;2023-01-09T16:53:16;12.20;68.20
33863;DHT22;20158;51.436;-2.742;2023-01-09T16:56:00;12.20;68.40
33863;DHT22;20158;51.436;-2.742;2023-01-09T16:58:45;12.20;69.30
33863;DHT22;20158;51.436;-2.742;2023-01-09T17:01:29;12.30;69.30
33863;DHT22;20158;51.436;-2.742;2023-01-09T17:04:16;12.40;69.50
33863;DHT22;20158;51.436;-2.742;2023-01-09T17:07:02;12.50;69.80
33863;DHT22;20158;51.436;-2.742;2023-01-09T17:09:47;12.60;69.80
33863;DHT22;20158;51.436;-2.742;2023-01-09T17:12:32;12.80;69.90
33863;DHT22;20158;51.436;-2.742;2023-01-09T17:15:16;12.80;69.60
33863;DHT22;20158;51.436;-2.742;2023-01-09T17:18:01;12.80;69.30
33863;DHT22;20158;51.436;-2.742;2023-01-09T17:20:50;12.70;69.10
33863;DHT22;20158;51.436;-2.742;2023-01-09T17:23:34;12.60;68.90
33863;DHT22;20158;51.436;-2.742;2023-01-09T17:26:20;12.50;68.70
33863;DHT22;20158;51.436;-2.742;2023-01-09T17:29:24;12.40;68.50
33863;DHT22;20158;51.436;-2.742;2023-01-09T17:32:16;12.30;68.30
33863;DHT22;20158;51.436;-2.742;2023-01-09T17:35:01;12.10;68.10
33863;DHT22;20158;51.436;-2.742;2023-01-09T17:37:46;12.00;68.00
33863;DHT22;20158;51.436;-2.742;2023-01-09T17:40:31;11.90;68.30
33863;DHT22;20158;51.436;-2.742;2023-01-09T17:43:16;11.90;68.50
33863;DHT22;20158;51.436;-2.742;2023-01-09T17:46:02;11.80;68.50
33863;DHT22;20158;51.436;-2.742;2023-01-09T17:48:46;11.70;68.30
33863;DHT22;20158;51.436;-2.742;2023-01-09T17:51:31;11.60;68.30
33863;DHT22;20158;51.436;-2.742;2023-01-09T17:54:17;11.50;68.20
33863;DHT22;20158;51.436;-2.742;2023-01-09T17:57:01;11.40;68.20
33863;DHT22;20158;51.436;-2.742;2023-01-09T17:59:46;11.30;68.20
33863;DHT22;20158;51.436;-2.742;2023-01-09T18:02:32;11.20;68.50
33863;DHT22;20158;51.436;-2.742;2023-01-09T18:05:17;11.30;69.20
33863;DHT22;20158;51.436;-2.742;2023-01-09T18:08:02;11.30;70.10
33863;DHT22;20158;51.436;-2.742;2023-01-09T18:10:47;11.40;69.90
33863;DHT22;20158;51.436;-2.742;2023-01-09T18:13:31;11.50;70.00
33863;DHT22;20158;51.436;-2.742;2023-01-09T18:16:19;11.50;69.80
33863;DHT22;20158;51.436;-2.742;2023-01-09T18:19:05;11.50;69.60
33863;DHT22;20158;51.436;-2.742;2023-01-09T18:21:50;11.40;69.40
33863;DHT22;20158;51.436;-2.742;2023-01-09T18:24:34;11.30;69.20
33863;DHT22;20158;51.436;-2.742;2023-01-09T18:27:19;11.20;69.10
33863;DHT22;20158;51.436;-2.742;2023-01-09T18:30:05;11.20;69.20
33863;DHT22;20158;51.436;-2.742;2023-01-09T18:32:50;11.00;68.90
33863;DHT22;20158;51.436;-2.742;2023-01-09T18:35:34;10.90;68.90
33863;DHT22;20158;51.436;-2.742;2023-01-09T18:38:19;10.80;68.80
33863;DHT22;20158;51.436;-2.742;2023-01-09T18:41:04;10.70;68.70
33863;DHT22;20158;51.436;-2.742;2023-01-09T18:43:52;10.70;68.80
33863;DHT22;20158;51.436;-2.742;2023-01-09T18:46:38;10.60;68.70
33863;DHT22;20158;51.436;-2.742;2023-01-09T18:49:23;10.50;68.60
33863;DHT22;20158;51.436;-2.742;2023-01-09T18:52:08;10.40;68.70
33863;DHT22;20158;51.436;-2.742;2023-01-09T18:54:53;10.50;69.10
33863;DHT22;20158;51.436;-2.742;2023-01-09T18:57:37;10.40;68.90
33863;DHT22;20158;51.436;-2.742;2023-01-09T19:00:22;10.40;68.90
33863;DHT22;20158;51.436;-2.742;2023-01-09T19:03:06;10.40;68.90
33863;DHT22;20158;51.436;-2.742;2023-01-09T19:05:51;10.30;68.70
33863;DHT22;20158;51.436;-2.742;2023-01-09T19:08:35;10.30;68.70
33863;DHT22;20158;51.436;-2.742;2023-01-09T19:11:20;10.30;68.70
33863;DHT22;20158;51.436;-2.742;2023-01-09T19:14:04;10.20;68.50
33863;DHT22;20158;51.436;-2.742;2023-01-09T19:16:50;10.20;68.50
33863;DHT22;20158;51.436;-2.742;2023-01-09T19:19:37;10.10;68.40
33863;DHT22;20158;51.436;-2.742;2023-01-09T19:22:22;10.00;68.20
33863;DHT22;20158;51.436;-2.742;2023-01-09T19:25:07;10.00;68.30
33863;DHT22;20158;51.436;-2.742;2023-01-09T19:27:51;9.90;68.10
33863;DHT22;20158;51.436;-2.742;2023-01-09T19:30:39;9.90;68.20
33863;DHT22;20158;51.436;-2.742;2023-01-09T19:33:24;9.90;68.20
33863;DHT22;20158;51.436;-2.742;2023-01-09T19:36:08;9.80;68.00
33863;DHT22;20158;51.436;-2.742;2023-01-09T19:39:01;9.80;68.00